Aviation Digital Data Service (ADDS)

Output produced by TAFs form (2225 UTC 12 February 2016)
found at http://www.aviationweather.gov/adds/tafs/
 
KMDT 122128Z 1221/1318 23008KT P6SM FEW040 BKN070 OVC140 
     FM122200 24008KT 2SM -SN OVC030 
     FM130100 25010G17KT 5SM -SHSN SCT025 OVC035 
     FM130400 29012G20KT 5SM -SHSN SCT025 OVC040 
     FM130700 29016G26KT P6SM BKN050